PWSweather.com
Personal Weather Stations
Station Observations
KMICHEBO10
Cordwood Point, Lake Huron, Cheboygan, MI 49721

Cordwood Point, Lake HuronCheboygan, MI 49721

Lat: 45.663372, Lon: -84.3327789

Elevation: 598

Station Type: Davis Vantage Pro2 Wireless

https://www.lakehuronweather.org

Latest ConditionsUpdated 10:10:00 PM EST Friday, Jan 17, 2020
Currently Today's Max Today's Min Today's Average
Temperature 20.7°F-6.3°C 24.2°F-4.3°C 17.6°F-8.0°C 20.6°F-6.3°C
Dew Point 15.8°F-9.0°C 16.3°F-8.7°C 12.7°F-10.7°C 14.8°F-9.6°C
Winds 2.3 mph SE3.7 kmh SE 4.6 mph -7.4 kmh - - 1.4 mph 2.3 kmh
Wind Gusts 3.5 mph5.6 kmh 10.4 mph16.7 kmh - -
Humidity 81% 90% 64% 78%
Pressure 30.53 in1033.9 mb 30.83 in1044.0 mb 30.53 in1033.9 mb -
Hour Temp Dew Point Humidity Winds Wind Gusts Pressure Precip Precip Rate Daily Precip Total
10:10 PM 20.7°F-6.3°C 15.8°F-9.0°C 81% 2.3 mph SE3.7 kmh SE 3.5 mph5.6 kmh 30.53 in1033.9 mb - 0.00 in0.0 mm 0.00 in0.0 mm
10:00 PM 20.6°F-6.3°C 15.7°F-9.1°C 81% 3.5 mph S5.6 kmh S 5.8 mph9.3 kmh 30.54 in1034.2 mb - 0.00 in0.0 mm 0.00 in0.0 mm
09:50 PM 20.5°F-6.4°C 15.6°F-9.1°C 81% 3.5 mph SE5.6 kmh SE 5.8 mph9.3 kmh 30.55 in1034.5 mb - 0.00 in0.0 mm 0.00 in0.0 mm
09:40 PM 20.5°F-6.4°C 15.3°F-9.3°C 80% 1.1 mph SE1.8 kmh SE 3.5 mph5.6 kmh 30.56 in1034.9 mb - 0.00 in0.0 mm 0.00 in0.0 mm
09:30 PM 20.4°F-6.4°C 15.2°F-9.3°C 80% 3.5 mph SSE5.6 kmh SSE 5.8 mph9.3 kmh 30.57 in1035.2 mb - 0.00 in0.0 mm 0.00 in0.0 mm
09:20 PM 20.4°F-6.4°C 15.2°F-9.3°C 80% 3.5 mph SE5.6 kmh SE 5.8 mph9.3 kmh 30.58 in1035.6 mb - 0.00 in0.0 mm 0.00 in0.0 mm
09:10 PM 20.3°F-6.5°C 15.1°F-9.4°C 80% 2.3 mph SSE3.7 kmh SSE 3.5 mph5.6 kmh 30.58 in1035.6 mb - 0.00 in0.0 mm 0.00 in0.0 mm
09:00 PM 20.3°F-6.5°C 15.1°F-9.4°C 80% Calm Calm 1.1 mph1.8 kmh 30.59 in1035.9 mb - 0.00 in0.0 mm 0.00 in0.0 mm
08:50 PM 20.3°F-6.5°C 15.1°F-9.4°C 80% 4.6 mph SE7.4 kmh SE 5.8 mph9.3 kmh 30.59 in1035.9 mb - 0.00 in0.0 mm 0.00 in0.0 mm
08:40 PM 20.3°F-6.5°C 15.1°F-9.4°C 80% 2.3 mph SE3.7 kmh SE 5.8 mph9.3 kmh 30.61 in1036.6 mb - 0.00 in0.0 mm 0.00 in0.0 mm
08:30 PM 20.2°F-6.6°C 15.3°F-9.3°C 81% 3.5 mph SE5.6 kmh SE 5.8 mph9.3 kmh 30.62 in1036.9 mb - 0.00 in0.0 mm 0.00 in0.0 mm
08:20 PM 20.1°F-6.6°C 15.2°F-9.3°C 81% Calm Calm 1.1 mph1.8 kmh 30.62 in1036.9 mb - 0.00 in0.0 mm 0.00 in0.0 mm
08:10 PM 20.0°F-6.7°C 15.1°F-9.4°C 81% 1.1 mph ESE1.8 kmh ESE 2.3 mph3.7 kmh 30.62 in1036.9 mb - 0.00 in0.0 mm 0.00 in0.0 mm
08:00 PM 20.0°F-6.7°C 15.4°F-9.2°C 82% Calm Calm 1.1 mph1.8 kmh 30.62 in1036.9 mb - 0.00 in0.0 mm 0.00 in0.0 mm
07:50 PM 19.9°F-6.7°C 15.0°F-9.4°C 81% 1.1 mph SE1.8 kmh SE 1.1 mph1.8 kmh 30.62 in1036.9 mb - 0.00 in0.0 mm 0.00 in0.0 mm
07:40 PM 19.8°F-6.8°C 15.2°F-9.3°C 82% 1.1 mph SE1.8 kmh SE 2.3 mph3.7 kmh 30.63 in1037.3 mb - 0.00 in0.0 mm 0.00 in0.0 mm
07:30 PM 19.7°F-6.8°C 14.8°F-9.6°C 81% 1.1 mph SE1.8 kmh SE 1.1 mph1.8 kmh 30.63 in1037.3 mb - 0.00 in0.0 mm 0.00 in0.0 mm
07:20 PM 19.6°F-6.9°C 14.4°F-9.8°C 80% 1.1 mph SSE1.8 kmh SSE 4.6 mph7.4 kmh 30.63 in1037.3 mb - 0.00 in0.0 mm 0.00 in0.0 mm
07:10 PM 19.4°F-7.0°C 13.7°F-10.2°C 78% 2.3 mph ESE3.7 kmh ESE 2.3 mph3.7 kmh 30.64 in1037.6 mb - 0.00 in0.0 mm 0.00 in0.0 mm
07:00 PM 19.3°F-7.1°C 13.3°F-10.4°C 77% Calm Calm -- 30.64 in1037.6 mb - 0.00 in0.0 mm 0.00 in0.0 mm
06:50 PM 19.2°F-7.1°C 13.2°F-10.4°C 77% Calm Calm 2.3 mph3.7 kmh 30.65 in1037.9 mb - 0.00 in0.0 mm 0.00 in0.0 mm
06:40 PM 19.2°F-7.1°C 12.9°F-10.6°C 76% Calm Calm 1.1 mph1.8 kmh 30.65 in1037.9 mb - 0.00 in0.0 mm 0.00 in0.0 mm
06:30 PM 19.3°F-7.1°C 12.7°F-10.7°C 75% Calm Calm 1.1 mph1.8 kmh 30.65 in1037.9 mb - 0.00 in0.0 mm 0.00 in0.0 mm
06:20 PM 19.5°F-6.9°C 13.2°F-10.4°C 76% Calm Calm -- 30.66 in1038.3 mb - 0.00 in0.0 mm 0.00 in0.0 mm
06:10 PM 19.8°F-6.8°C 12.9°F-10.6°C 74% Calm Calm -- 30.65 in1037.9 mb - 0.00 in0.0 mm 0.00 in0.0 mm
06:00 PM 20.2°F-6.6°C 12.9°F-10.6°C 73% Calm Calm -- 30.66 in1038.3 mb - 0.00 in0.0 mm 0.00 in0.0 mm
05:50 PM 20.5°F-6.4°C 13.2°F-10.4°C 73% Calm Calm -- 30.66 in1038.3 mb - 0.00 in0.0 mm 0.00 in0.0 mm
05:40 PM 20.7°F-6.3°C 13.1°F-10.5°C 72% Calm Calm 1.1 mph1.8 kmh 30.65 in1037.9 mb - 0.00 in0.0 mm 0.00 in0.0 mm
05:30 PM 20.9°F-6.2°C 13.3°F-10.4°C 72% Calm Calm 2.3 mph3.7 kmh 30.64 in1037.6 mb - 0.00 in0.0 mm 0.00 in0.0 mm
05:20 PM 21.2°F-6.0°C 13.6°F-10.2°C 72% Calm Calm 1.1 mph1.8 kmh 30.64 in1037.6 mb - 0.00 in0.0 mm 0.00 in0.0 mm
05:10 PM 21.6°F-5.8°C 13.6°F-10.2°C 71% Calm Calm 1.1 mph1.8 kmh 30.64 in1037.6 mb - 0.00 in0.0 mm 0.00 in0.0 mm
05:00 PM 21.9°F-5.6°C 13.6°F-10.2°C 70% Calm Calm 1.1 mph1.8 kmh 30.65 in1037.9 mb - 0.00 in0.0 mm 0.00 in0.0 mm
04:50 PM 22.2°F-5.4°C 13.9°F-10.1°C 70% 2.3 mph E3.7 kmh E 3.5 mph5.6 kmh 30.65 in1037.9 mb - 0.00 in0.0 mm 0.00 in0.0 mm
04:40 PM 22.5°F-5.3°C 13.9°F-10.1°C 69% 1.1 mph SSE1.8 kmh SSE 3.5 mph5.6 kmh 30.65 in1037.9 mb - 0.00 in0.0 mm 0.00 in0.0 mm
04:30 PM 22.8°F-5.1°C 13.8°F-10.1°C 68% Calm Calm 1.1 mph1.8 kmh 30.65 in1037.9 mb - 0.00 in0.0 mm 0.00 in0.0 mm
04:20 PM 23.0°F-5.0°C 14.0°F-10.0°C 68% 1.1 mph S1.8 kmh S 2.3 mph3.7 kmh 30.66 in1038.3 mb - 0.00 in0.0 mm 0.00 in0.0 mm
04:10 PM 23.2°F-4.9°C 13.5°F-10.3°C 66% Calm Calm 2.3 mph3.7 kmh 30.66 in1038.3 mb - 0.00 in0.0 mm 0.00 in0.0 mm
04:00 PM 23.3°F-4.8°C 13.6°F-10.2°C 66% 1.1 mph SE1.8 kmh SE 2.3 mph3.7 kmh 30.67 in1038.6 mb - 0.00 in0.0 mm 0.00 in0.0 mm
03:50 PM 23.5°F-4.7°C 13.8°F-10.1°C 66% 1.1 mph S1.8 kmh S 1.1 mph1.8 kmh 30.67 in1038.6 mb - 0.00 in0.0 mm 0.00 in0.0 mm
03:40 PM 23.6°F-4.7°C 14.2°F-9.9°C 67% 2.3 mph SE3.7 kmh SE 3.5 mph5.6 kmh 30.67 in1038.6 mb - 0.00 in0.0 mm 0.00 in0.0 mm
03:30 PM 23.6°F-4.7°C 13.9°F-10.1°C 66% 1.1 mph SE1.8 kmh SE 2.3 mph3.7 kmh 30.67 in1038.6 mb - 0.00 in0.0 mm 0.00 in0.0 mm
03:20 PM 23.8°F-4.6°C 14.1°F-9.9°C 66% 2.3 mph SSE3.7 kmh SSE 2.3 mph3.7 kmh 30.68 in1038.9 mb - 0.00 in0.0 mm 0.00 in0.0 mm
03:10 PM 23.8°F-4.6°C 14.1°F-9.9°C 66% 3.5 mph SE5.6 kmh SE 3.5 mph5.6 kmh 30.68 in1038.9 mb - 0.00 in0.0 mm 0.00 in0.0 mm
03:00 PM 24.2°F-4.3°C 14.5°F-9.7°C 66% 2.3 mph S3.7 kmh S 3.5 mph5.6 kmh 30.68 in1038.9 mb - 0.00 in0.0 mm 0.00 in0.0 mm
02:50 PM 23.9°F-4.5°C 13.9°F-10.1°C 65% Calm Calm 1.1 mph1.8 kmh 30.68 in1038.9 mb - 0.00 in0.0 mm 0.00 in0.0 mm
02:40 PM 23.9°F-4.5°C 13.8°F-10.1°C 65% Calm Calm 1.1 mph1.8 kmh 30.68 in1038.9 mb - 0.00 in0.0 mm 0.00 in0.0 mm
02:30 PM 23.6°F-4.7°C 13.9°F-10.1°C 66% 3.5 mph E5.6 kmh E 4.6 mph7.4 kmh 30.68 in1038.9 mb - 0.00 in0.0 mm 0.00 in0.0 mm
02:20 PM 23.6°F-4.7°C 13.5°F-10.3°C 65% 3.5 mph ESE5.6 kmh ESE 3.5 mph5.6 kmh 30.68 in1038.9 mb - 0.00 in0.0 mm 0.00 in0.0 mm
02:10 PM 23.6°F-4.7°C 13.6°F-10.2°C 65% 2.3 mph S3.7 kmh S 2.3 mph3.7 kmh 30.70 in1039.6 mb - 0.00 in0.0 mm 0.00 in0.0 mm
02:00 PM 23.9°F-4.5°C 13.5°F-10.3°C 64% 2.3 mph SE3.7 kmh SE 4.6 mph7.4 kmh 30.70 in1039.6 mb - 0.00 in0.0 mm 0.00 in0.0 mm
01:50 PM 23.9°F-4.5°C 13.5°F-10.3°C 64% 1.1 mph SE1.8 kmh SE 2.3 mph3.7 kmh 30.70 in1039.6 mb - 0.00 in0.0 mm 0.00 in0.0 mm
01:40 PM 24.1°F-4.4°C 13.7°F-10.2°C 64% 3.5 mph S5.6 kmh S 4.6 mph7.4 kmh 30.71 in1040.0 mb - 0.00 in0.0 mm 0.00 in0.0 mm
01:30 PM 23.9°F-4.5°C 13.8°F-10.1°C 65% 3.5 mph SE5.6 kmh SE 3.5 mph5.6 kmh 30.72 in1040.3 mb - 0.00 in0.0 mm 0.00 in0.0 mm
01:20 PM 23.6°F-4.7°C 14.2°F-9.9°C 67% 2.3 mph SSE3.7 kmh SSE 3.5 mph5.6 kmh 30.72 in1040.3 mb - 0.00 in0.0 mm 0.00 in0.0 mm
01:10 PM 23.5°F-4.7°C 14.1°F-9.9°C 67% 2.3 mph S3.7 kmh S 5.8 mph9.3 kmh 30.73 in1040.6 mb - 0.00 in0.0 mm 0.00 in0.0 mm
01:00 PM 23.5°F-4.7°C 14.5°F-9.7°C 68% 1.1 mph SE1.8 kmh SE 3.5 mph5.6 kmh 30.73 in1040.6 mb - 0.00 in0.0 mm 0.00 in0.0 mm
12:50 PM 23.1°F-4.9°C 13.8°F-10.1°C 67% 1.1 mph SE1.8 kmh SE 1.1 mph1.8 kmh 30.74 in1041.0 mb - 0.00 in0.0 mm 0.00 in0.0 mm
12:40 PM 23.0°F-5.0°C 13.7°F-10.2°C 67% 2.3 mph E3.7 kmh E 4.6 mph7.4 kmh 30.75 in1041.3 mb - 0.00 in0.0 mm 0.00 in0.0 mm
12:30 PM 22.9°F-5.1°C 13.9°F-10.1°C 68% 3.5 mph SE5.6 kmh SE 4.6 mph7.4 kmh 30.75 in1041.3 mb - 0.00 in0.0 mm 0.00 in0.0 mm
12:20 PM 22.6°F-5.2°C 13.6°F-10.2°C 68% Calm Calm 3.5 mph5.6 kmh 30.76 in1041.7 mb - 0.00 in0.0 mm 0.00 in0.0 mm
12:10 PM 22.4°F-5.3°C 13.8°F-10.1°C 69% 1.1 mph SE1.8 kmh SE 2.3 mph3.7 kmh 30.77 in1042.0 mb - 0.00 in0.0 mm 0.00 in0.0 mm
12:00 PM 22.3°F-5.4°C 13.7°F-10.2°C 69% 1.1 mph SE1.8 kmh SE 3.5 mph5.6 kmh 30.78 in1042.3 mb - 0.00 in0.0 mm 0.00 in0.0 mm
11:50 AM 22.1°F-5.5°C 14.1°F-9.9°C 71% Calm Calm 1.1 mph1.8 kmh 30.79 in1042.7 mb - 0.00 in0.0 mm 0.00 in0.0 mm
11:40 AM 22.1°F-5.5°C 14.1°F-9.9°C 71% 1.1 mph SE1.8 kmh SE 2.3 mph3.7 kmh 30.79 in1042.7 mb - 0.00 in0.0 mm 0.00 in0.0 mm
11:30 AM 22.0°F-5.6°C 15.0°F-9.4°C 74% 1.1 mph SSW1.8 kmh SSW 3.5 mph5.6 kmh 30.80 in1043.0 mb - 0.00 in0.0 mm 0.00 in0.0 mm
11:20 AM 21.7°F-5.7°C 15.0°F-9.4°C 75% 1.1 mph SW1.8 kmh SW 3.5 mph5.6 kmh 30.80 in1043.0 mb - 0.00 in0.0 mm 0.00 in0.0 mm
11:10 AM 21.6°F-5.8°C 15.2°F-9.3°C 76% 1.1 mph SW1.8 kmh SW 2.3 mph3.7 kmh 30.81 in1043.3 mb - 0.00 in0.0 mm 0.00 in0.0 mm
11:00 AM 21.3°F-5.9°C 15.5°F-9.2°C 78% Calm Calm 1.1 mph1.8 kmh 30.81 in1043.3 mb - 0.00 in0.0 mm 0.00 in0.0 mm
10:50 AM 20.9°F-6.2°C 15.4°F-9.2°C 79% 1.1 mph SSE1.8 kmh SSE 2.3 mph3.7 kmh 30.82 in1043.7 mb - 0.00 in0.0 mm 0.00 in0.0 mm
10:40 AM 20.6°F-6.3°C 15.4°F-9.2°C 80% 1.1 mph SSE1.8 kmh SSE 2.3 mph3.7 kmh 30.82 in1043.7 mb - 0.00 in0.0 mm 0.00 in0.0 mm
10:30 AM 20.4°F-6.4°C 16.0°F-8.9°C 83% 1.1 mph S1.8 kmh S 2.3 mph3.7 kmh 30.82 in1043.7 mb - 0.00 in0.0 mm 0.00 in0.0 mm
10:20 AM 20.1°F-6.6°C 16.0°F-8.9°C 84% 2.3 mph S3.7 kmh S 3.5 mph5.6 kmh 30.82 in1043.7 mb - 0.00 in0.0 mm 0.00 in0.0 mm
10:10 AM 19.8°F-6.8°C 16.0°F-8.9°C 85% 1.1 mph S1.8 kmh S 2.3 mph3.7 kmh 30.82 in1043.7 mb - 0.00 in0.0 mm 0.00 in0.0 mm
10:00 AM 19.5°F-6.9°C 16.3°F-8.7°C 87% Calm Calm 1.1 mph1.8 kmh 30.83 in1044.0 mb - 0.00 in0.0 mm 0.00 in0.0 mm
09:50 AM 19.1°F-7.2°C 16.2°F-8.8°C 88% 1.1 mph S1.8 kmh S 2.3 mph3.7 kmh 30.83 in1044.0 mb - 0.00 in0.0 mm 0.00 in0.0 mm
09:40 AM 18.7°F-7.4°C 15.7°F-9.1°C 88% 1.1 mph S1.8 kmh S 3.5 mph5.6 kmh 30.82 in1043.7 mb - 0.00 in0.0 mm 0.00 in0.0 mm
09:30 AM 18.3°F-7.6°C 15.6°F-9.1°C 89% 1.1 mph S1.8 kmh S 2.3 mph3.7 kmh 30.83 in1044.0 mb - 0.00 in0.0 mm 0.00 in0.0 mm
09:20 AM 18.1°F-7.7°C 15.4°F-9.2°C 89% Calm Calm 1.1 mph1.8 kmh 30.82 in1043.7 mb - 0.00 in0.0 mm 0.00 in0.0 mm
09:10 AM 17.9°F-7.8°C 15.2°F-9.3°C 89% 1.1 mph S1.8 kmh S 2.3 mph3.7 kmh 30.82 in1043.7 mb - 0.00 in0.0 mm 0.00 in0.0 mm
09:00 AM 17.8°F-7.9°C 15.1°F-9.4°C 89% 1.1 mph S1.8 kmh S 2.3 mph3.7 kmh 30.82 in1043.7 mb - 0.00 in0.0 mm 0.00 in0.0 mm
08:50 AM 17.7°F-7.9°C 15.0°F-9.4°C 89% 1.1 mph SE1.8 kmh SE 3.5 mph5.6 kmh 30.82 in1043.7 mb - 0.00 in0.0 mm 0.00 in0.0 mm
08:40 AM 17.6°F-8.0°C 15.2°F-9.3°C 90% 2.3 mph SE3.7 kmh SE 3.5 mph5.6 kmh 30.82 in1043.7 mb - 0.00 in0.0 mm 0.00 in0.0 mm
08:30 AM 17.6°F-8.0°C 15.2°F-9.3°C 90% 1.1 mph SE1.8 kmh SE 2.3 mph3.7 kmh 30.82 in1043.7 mb - 0.00 in0.0 mm 0.00 in0.0 mm
08:20 AM 17.6°F-8.0°C 15.2°F-9.3°C 90% Calm Calm 2.3 mph3.7 kmh 30.82 in1043.7 mb - 0.00 in0.0 mm 0.00 in0.0 mm
08:10 AM 17.6°F-8.0°C 15.2°F-9.3°C 90% 1.1 mph SE1.8 kmh SE 3.5 mph5.6 kmh 30.82 in1043.7 mb - 0.00 in0.0 mm 0.00 in0.0 mm
08:00 AM 17.6°F-8.0°C 15.2°F-9.3°C 90% 1.1 mph SE1.8 kmh SE 3.5 mph5.6 kmh 30.82 in1043.7 mb - 0.00 in0.0 mm 0.00 in0.0 mm
07:50 AM 17.6°F-8.0°C 15.2°F-9.3°C 90% 1.1 mph SSE1.8 kmh SSE 3.5 mph5.6 kmh 30.82 in1043.7 mb - 0.00 in0.0 mm 0.00 in0.0 mm
07:40 AM 17.6°F-8.0°C 15.2°F-9.3°C 90% 1.1 mph SSE1.8 kmh SSE 2.3 mph3.7 kmh 30.82 in1043.7 mb - 0.00 in0.0 mm 0.00 in0.0 mm
07:30 AM 17.7°F-7.9°C 15.0°F-9.4°C 89% 1.1 mph SSE1.8 kmh SSE 2.3 mph3.7 kmh 30.82 in1043.7 mb - 0.00 in0.0 mm 0.00 in0.0 mm
07:20 AM 17.7°F-7.9°C 15.0°F-9.4°C 89% 1.1 mph SSE1.8 kmh SSE 2.3 mph3.7 kmh 30.82 in1043.7 mb - 0.00 in0.0 mm 0.00 in0.0 mm
07:10 AM 17.7°F-7.9°C 15.0°F-9.4°C 89% Calm Calm 1.1 mph1.8 kmh 30.82 in1043.7 mb - 0.00 in0.0 mm 0.00 in0.0 mm
07:00 AM 17.7°F-7.9°C 14.8°F-9.6°C 88% Calm Calm 1.1 mph1.8 kmh 30.82 in1043.7 mb - 0.00 in0.0 mm 0.00 in0.0 mm
06:50 AM 17.7°F-7.9°C 14.8°F-9.6°C 88% 1.1 mph SSE1.8 kmh SSE 1.1 mph1.8 kmh 30.82 in1043.7 mb - 0.00 in0.0 mm 0.00 in0.0 mm
06:40 AM 17.8°F-7.9°C 14.9°F-9.5°C 88% 1.1 mph SSE1.8 kmh SSE 3.5 mph5.6 kmh 30.82 in1043.7 mb - 0.00 in0.0 mm 0.00 in0.0 mm
06:30 AM 17.9°F-7.8°C 15.0°F-9.4°C 88% Calm Calm -- 30.82 in1043.7 mb - 0.00 in0.0 mm 0.00 in0.0 mm
06:20 AM 18.0°F-7.8°C 15.0°F-9.4°C 88% 1.1 mph SSE1.8 kmh SSE 2.3 mph3.7 kmh 30.82 in1043.7 mb - 0.00 in0.0 mm 0.00 in0.0 mm
06:10 AM 18.0°F-7.8°C 14.8°F-9.6°C 87% 1.1 mph SSE1.8 kmh SSE 1.1 mph1.8 kmh 30.81 in1043.3 mb - 0.00 in0.0 mm 0.00 in0.0 mm
06:00 AM 18.1°F-7.7°C 14.9°F-9.5°C 87% Calm Calm 1.1 mph1.8 kmh 30.81 in1043.3 mb - 0.00 in0.0 mm 0.00 in0.0 mm
05:50 AM 18.1°F-7.7°C 14.6°F-9.7°C 86% Calm Calm -- 30.81 in1043.3 mb - 0.00 in0.0 mm 0.00 in0.0 mm
05:40 AM 18.2°F-7.7°C 14.7°F-9.6°C 86% 1.1 mph SSE1.8 kmh SSE 2.3 mph3.7 kmh 30.80 in1043.0 mb - 0.00 in0.0 mm 0.00 in0.0 mm
05:30 AM 18.5°F-7.5°C 15.0°F-9.4°C 86% 1.1 mph S1.8 kmh S 2.3 mph3.7 kmh 30.80 in1043.0 mb - 0.00 in0.0 mm 0.00 in0.0 mm
05:20 AM 18.7°F-7.4°C 15.2°F-9.3°C 86% 1.1 mph E1.8 kmh E 2.3 mph3.7 kmh 30.80 in1043.0 mb - 0.00 in0.0 mm 0.00 in0.0 mm
05:10 AM 18.9°F-7.3°C 15.4°F-9.2°C 86% Calm Calm 1.1 mph1.8 kmh 30.80 in1043.0 mb - 0.00 in0.0 mm 0.00 in0.0 mm
05:00 AM 18.9°F-7.3°C 15.1°F-9.4°C 85% Calm Calm 1.1 mph1.8 kmh 30.79 in1042.7 mb - 0.00 in0.0 mm 0.00 in0.0 mm
04:50 AM 19.0°F-7.2°C 15.2°F-9.3°C 85% Calm Calm -- 30.79 in1042.7 mb - 0.00 in0.0 mm 0.00 in0.0 mm
04:40 AM 19.1°F-7.2°C 15.3°F-9.3°C 85% Calm Calm -- 30.79 in1042.7 mb - 0.00 in0.0 mm 0.00 in0.0 mm
04:30 AM 19.1°F-7.2°C 15.3°F-9.3°C 85% 3.5 mph ESE5.6 kmh ESE 3.5 mph5.6 kmh 30.79 in1042.7 mb - 0.00 in0.0 mm 0.00 in0.0 mm
04:20 AM 19.2°F-7.1°C 15.4°F-9.2°C 85% 1.1 mph ENE1.8 kmh ENE 3.5 mph5.6 kmh 30.79 in1042.7 mb - 0.00 in0.0 mm 0.00 in0.0 mm
04:10 AM 19.3°F-7.1°C 15.5°F-9.2°C 85% 2.3 mph E3.7 kmh E 3.5 mph5.6 kmh 30.79 in1042.7 mb - 0.00 in0.0 mm 0.00 in0.0 mm
04:00 AM 19.3°F-7.1°C 15.3°F-9.3°C 84% 2.3 mph ENE3.7 kmh ENE 3.5 mph5.6 kmh 30.79 in1042.7 mb - 0.00 in0.0 mm 0.00 in0.0 mm
03:50 AM 19.6°F-6.9°C 15.6°F-9.1°C 84% 1.1 mph NE1.8 kmh NE 2.3 mph3.7 kmh 30.79 in1042.7 mb - 0.00 in0.0 mm 0.00 in0.0 mm
03:40 AM 20.1°F-6.6°C 16.0°F-8.9°C 84% 2.3 mph NE3.7 kmh NE 4.6 mph7.4 kmh 30.79 in1042.7 mb - 0.00 in0.0 mm 0.00 in0.0 mm
03:30 AM 20.4°F-6.4°C 15.8°F-9.0°C 82% 1.1 mph NE1.8 kmh NE 4.6 mph7.4 kmh 30.79 in1042.7 mb - 0.00 in0.0 mm 0.00 in0.0 mm
03:20 AM 20.5°F-6.4°C 15.6°F-9.1°C 81% 2.3 mph N3.7 kmh N 4.6 mph7.4 kmh 30.78 in1042.3 mb - 0.00 in0.0 mm 0.00 in0.0 mm
03:10 AM 20.6°F-6.3°C 15.4°F-9.2°C 80% 1.1 mph NNW1.8 kmh NNW 2.3 mph3.7 kmh 30.78 in1042.3 mb - 0.00 in0.0 mm 0.00 in0.0 mm
03:00 AM 20.6°F-6.3°C 15.1°F-9.4°C 79% 2.3 mph NW3.7 kmh NW 3.5 mph5.6 kmh 30.78 in1042.3 mb - 0.00 in0.0 mm 0.00 in0.0 mm
02:50 AM 21.0°F-6.1°C 15.8°F-9.0°C 80% Calm Calm 2.3 mph3.7 kmh 30.77 in1042.0 mb - 0.00 in0.0 mm 0.00 in0.0 mm
02:40 AM 21.2°F-6.0°C 16.0°F-8.9°C 80% 3.5 mph NW5.6 kmh NW 6.9 mph11.1 kmh 30.77 in1042.0 mb - 0.00 in0.0 mm 0.00 in0.0 mm
02:30 AM 21.2°F-6.0°C 16.3°F-8.7°C 81% 4.6 mph N7.4 kmh N 5.8 mph9.3 kmh 30.76 in1041.7 mb - 0.00 in0.0 mm 0.00 in0.0 mm
02:20 AM 20.9°F-6.2°C 14.5°F-9.7°C 76% 2.3 mph N3.7 kmh N 10.4 mph16.7 kmh 30.76 in1041.7 mb - 0.00 in0.0 mm 0.00 in0.0 mm
02:10 AM 21.0°F-6.1°C 14.9°F-9.5°C 77% 1.1 mph N1.8 kmh N 1.1 mph1.8 kmh 30.76 in1041.7 mb - 0.00 in0.0 mm 0.00 in0.0 mm
02:00 AM 21.1°F-6.1°C 15.0°F-9.4°C 77% 3.5 mph N5.6 kmh N 6.9 mph11.1 kmh 30.75 in1041.3 mb - 0.00 in0.0 mm 0.00 in0.0 mm
01:50 AM 21.0°F-6.1°C 15.2°F-9.3°C 78% 1.1 mph NNW1.8 kmh NNW 2.3 mph3.7 kmh 30.75 in1041.3 mb - 0.00 in0.0 mm 0.00 in0.0 mm
01:40 AM 21.0°F-6.1°C 15.5°F-9.2°C 79% 1.1 mph NNW1.8 kmh NNW 2.3 mph3.7 kmh 30.75 in1041.3 mb - 0.00 in0.0 mm 0.00 in0.0 mm
01:30 AM 21.2°F-6.0°C 16.3°F-8.7°C 81% 4.6 mph NW7.4 kmh NW 8.1 mph13.0 kmh 30.75 in1041.3 mb - 0.00 in0.0 mm 0.00 in0.0 mm
01:20 AM 21.3°F-5.9°C 15.8°F-9.0°C 79% 4.6 mph NW7.4 kmh NW 6.9 mph11.1 kmh 30.75 in1041.3 mb - 0.00 in0.0 mm 0.00 in0.0 mm
01:10 AM 21.1°F-6.1°C 15.0°F-9.4°C 77% 3.5 mph N5.6 kmh N 4.6 mph7.4 kmh 30.74 in1041.0 mb - 0.00 in0.0 mm 0.00 in0.0 mm
01:00 AM 21.2°F-6.0°C 15.7°F-9.1°C 79% 2.3 mph NNW3.7 kmh NNW 4.6 mph7.4 kmh 30.74 in1041.0 mb - 0.00 in0.0 mm 0.00 in0.0 mm
12:50 AM 21.2°F-6.0°C 16.0°F-8.9°C 80% 1.1 mph N1.8 kmh N 2.3 mph3.7 kmh 30.74 in1041.0 mb - 0.00 in0.0 mm 0.00 in0.0 mm
12:40 AM 21.2°F-6.0°C 15.7°F-9.1°C 79% 2.3 mph N3.7 kmh N 4.6 mph7.4 kmh 30.74 in1041.0 mb - 0.00 in0.0 mm 0.00 in0.0 mm
12:30 AM 21.2°F-6.0°C 15.7°F-9.1°C 79% 2.3 mph N3.7 kmh N 3.5 mph5.6 kmh 30.74 in1041.0 mb - 0.00 in0.0 mm 0.00 in0.0 mm
12:20 AM 21.3°F-5.9°C 15.5°F-9.2°C 78% 2.3 mph N3.7 kmh N 4.6 mph7.4 kmh 30.73 in1040.6 mb - 0.00 in0.0 mm 0.00 in0.0 mm
12:10 AM 21.3°F-5.9°C 16.1°F-8.8°C 80% 3.5 mph NNW5.6 kmh NNW 3.5 mph5.6 kmh 30.73 in1040.6 mb - 0.00 in0.0 mm 0.00 in0.0 mm
12:00 AM 21.2°F-6.0°C 15.7°F-9.1°C 79% 2.3 mph NNW3.7 kmh NNW 3.5 mph5.6 kmh 30.73 in1040.6 mb - 0.00 in0.0 mm 0.00 in0.0 mm